sensor_id;sensor_type;location;lat;lon;timestamp;temperature;humidity
24454;DHT22;12627;50.860;5.714;2022-11-25T00:01:21;10.20;99.90
24454;DHT22;12627;50.860;5.714;2022-11-25T00:03:49;10.20;99.90
24454;DHT22;12627;50.860;5.714;2022-11-25T00:06:18;10.20;99.90
24454;DHT22;12627;50.860;5.714;2022-11-25T00:08:47;10.30;99.90
24454;DHT22;12627;50.860;5.714;2022-11-25T00:11:17;10.30;99.90
24454;DHT22;12627;50.860;5.714;2022-11-25T00:13:45;10.30;99.90
24454;DHT22;12627;50.860;5.714;2022-11-25T00:16:14;10.30;99.90
24454;DHT22;12627;50.860;5.714;2022-11-25T00:18:43;10.30;99.90
24454;DHT22;12627;50.860;5.714;2022-11-25T00:21:12;10.40;99.90
24454;DHT22;12627;50.860;5.714;2022-11-25T00:23:39;10.40;99.90
24454;DHT22;12627;50.860;5.714;2022-11-25T00:26:08;10.40;99.90
24454;DHT22;12627;50.860;5.714;2022-11-25T00:28:38;10.40;99.90
24454;DHT22;12627;50.860;5.714;2022-11-25T00:31:06;10.50;99.90
24454;DHT22;12627;50.860;5.714;2022-11-25T00:33:34;10.60;99.90
24454;DHT22;12627;50.860;5.714;2022-11-25T00:36:01;10.60;99.90
24454;DHT22;12627;50.860;5.714;2022-11-25T00:38:28;10.60;99.90
24454;DHT22;12627;50.860;5.714;2022-11-25T00:40:56;10.50;99.90
24454;DHT22;12627;50.860;5.714;2022-11-25T00:43:38;10.50;99.90
24454;DHT22;12627;50.860;5.714;2022-11-25T00:46:22;10.50;99.90
24454;DHT22;12627;50.860;5.714;2022-11-25T00:48:49;10.60;99.90
24454;DHT22;12627;50.860;5.714;2022-11-25T00:51:16;10.70;99.90
24454;DHT22;12627;50.860;5.714;2022-11-25T00:53:44;10.60;99.90
24454;DHT22;12627;50.860;5.714;2022-11-25T00:56:11;10.60;99.90
24454;DHT22;12627;50.860;5.714;2022-11-25T00:58:43;10.60;99.90
24454;DHT22;12627;50.860;5.714;2022-11-25T01:01:10;10.70;99.90
24454;DHT22;12627;50.860;5.714;2022-11-25T01:03:38;10.60;99.90
24454;DHT22;12627;50.860;5.714;2022-11-25T01:06:06;10.60;99.90
24454;DHT22;12627;50.860;5.714;2022-11-25T01:08:35;10.70;99.90
24454;DHT22;12627;50.860;5.714;2022-11-25T01:11:05;10.70;99.90
24454;DHT22;12627;50.860;5.714;2022-11-25T01:13:32;10.70;99.90
24454;DHT22;12627;50.860;5.714;2022-11-25T01:16:02;10.70;99.90
24454;DHT22;12627;50.860;5.714;2022-11-25T01:18:30;10.60;99.90
24454;DHT22;12627;50.860;5.714;2022-11-25T01:21:04;10.70;99.90
24454;DHT22;12627;50.860;5.714;2022-11-25T01:23:32;10.70;99.90
24454;DHT22;12627;50.860;5.714;2022-11-25T01:26:01;10.60;99.90
24454;DHT22;12627;50.860;5.714;2022-11-25T01:28:28;10.70;99.90
24454;DHT22;12627;50.860;5.714;2022-11-25T01:31:01;10.80;99.90
24454;DHT22;12627;50.860;5.714;2022-11-25T01:33:30;10.80;99.90
24454;DHT22;12627;50.860;5.714;2022-11-25T01:36:00;10.80;99.90
24454;DHT22;12627;50.860;5.714;2022-11-25T01:38:28;10.70;99.90
24454;DHT22;12627;50.860;5.714;2022-11-25T01:40:56;10.70;99.90
24454;DHT22;12627;50.860;5.714;2022-11-25T01:43:23;10.70;99.90
24454;DHT22;12627;50.860;5.714;2022-11-25T01:45:51;10.70;99.90
24454;DHT22;12627;50.860;5.714;2022-11-25T01:48:26;10.70;99.90
24454;DHT22;12627;50.860;5.714;2022-11-25T01:50:55;10.60;99.90
24454;DHT22;12627;50.860;5.714;2022-11-25T01:53:22;10.70;99.90
24454;DHT22;12627;50.860;5.714;2022-11-25T01:55:54;10.70;99.90
24454;DHT22;12627;50.860;5.714;2022-11-25T01:58:25;10.60;99.90
24454;DHT22;12627;50.860;5.714;2022-11-25T02:00:54;10.70;99.90
24454;DHT22;12627;50.860;5.714;2022-11-25T02:03:25;10.60;99.90
24454;DHT22;12627;50.860;5.714;2022-11-25T02:06:00;10.60;99.90
24454;DHT22;12627;50.860;5.714;2022-11-25T02:08:28;10.60;99.90
24454;DHT22;12627;50.860;5.714;2022-11-25T02:10:57;10.70;99.90
24454;DHT22;12627;50.860;5.714;2022-11-25T02:13:24;10.60;99.90
24454;DHT22;12627;50.860;5.714;2022-11-25T02:15:51;10.50;99.90
24454;DHT22;12627;50.860;5.714;2022-11-25T02:18:19;10.50;99.90
24454;DHT22;12627;50.860;5.714;2022-11-25T02:20:47;10.50;99.90
24454;DHT22;12627;50.860;5.714;2022-11-25T02:23:18;10.50;99.90
24454;DHT22;12627;50.860;5.714;2022-11-25T02:25:52;10.50;99.90
24454;DHT22;12627;50.860;5.714;2022-11-25T02:28:22;10.60;99.90
24454;DHT22;12627;50.860;5.714;2022-11-25T02:30:50;10.70;99.90
24454;DHT22;12627;50.860;5.714;2022-11-25T02:33:18;10.70;99.90
24454;DHT22;12627;50.860;5.714;2022-11-25T02:35:47;10.80;99.90
24454;DHT22;12627;50.860;5.714;2022-11-25T02:38:17;10.80;99.90
24454;DHT22;12627;50.860;5.714;2022-11-25T02:40:48;10.80;99.90
24454;DHT22;12627;50.860;5.714;2022-11-25T02:43:17;10.80;99.90
24454;DHT22;12627;50.860;5.714;2022-11-25T02:45:54;10.60;99.90
24454;DHT22;12627;50.860;5.714;2022-11-25T02:48:22;10.40;99.90
24454;DHT22;12627;50.860;5.714;2022-11-25T02:50:49;10.30;99.90
24454;DHT22;12627;50.860;5.714;2022-11-25T02:53:17;10.10;99.90
24454;DHT22;12627;50.860;5.714;2022-11-25T02:55:44;10.00;99.90
24454;DHT22;12627;50.860;5.714;2022-11-25T02:58:12;9.90;99.90
24454;DHT22;12627;50.860;5.714;2022-11-25T03:00:41;9.80;99.90
24454;DHT22;12627;50.860;5.714;2022-11-25T03:03:09;9.90;99.90
24454;DHT22;12627;50.860;5.714;2022-11-25T03:05:36;9.70;99.90
24454;DHT22;12627;50.860;5.714;2022-11-25T03:08:04;9.80;99.90
24454;DHT22;12627;50.860;5.714;2022-11-25T03:10:32;9.80;99.90
24454;DHT22;12627;50.860;5.714;2022-11-25T03:12:59;9.80;99.90
24454;DHT22;12627;50.860;5.714;2022-11-25T03:15:26;9.70;99.90
24454;DHT22;12627;50.860;5.714;2022-11-25T03:17:55;9.70;99.90
24454;DHT22;12627;50.860;5.714;2022-11-25T03:20:23;9.70;99.90
24454;DHT22;12627;50.860;5.714;2022-11-25T03:22:50;9.60;99.90
24454;DHT22;12627;50.860;5.714;2022-11-25T03:25:18;9.60;99.90
24454;DHT22;12627;50.860;5.714;2022-11-25T03:27:45;9.60;99.90
24454;DHT22;12627;50.860;5.714;2022-11-25T03:30:14;9.50;99.90
24454;DHT22;12627;50.860;5.714;2022-11-25T03:32:42;9.50;99.90
24454;DHT22;12627;50.860;5.714;2022-11-25T03:35:11;9.50;99.90
24454;DHT22;12627;50.860;5.714;2022-11-25T03:37:39;9.50;99.90
24454;DHT22;12627;50.860;5.714;2022-11-25T03:40:07;9.40;99.90
24454;DHT22;12627;50.860;5.714;2022-11-25T03:42:35;9.40;99.90
24454;DHT22;12627;50.860;5.714;2022-11-25T03:45:03;9.40;99.90
24454;DHT22;12627;50.860;5.714;2022-11-25T03:47:31;9.30;99.90
24454;DHT22;12627;50.860;5.714;2022-11-25T03:49:58;9.30;99.90
24454;DHT22;12627;50.860;5.714;2022-11-25T03:52:27;9.30;99.90
24454;DHT22;12627;50.860;5.714;2022-11-25T03:54:54;9.30;99.90
24454;DHT22;12627;50.860;5.714;2022-11-25T03:57:21;9.20;99.90
24454;DHT22;12627;50.860;5.714;2022-11-25T03:59:48;9.30;99.90
24454;DHT22;12627;50.860;5.714;2022-11-25T04:02:16;9.30;99.90
24454;DHT22;12627;50.860;5.714;2022-11-25T04:04:43;9.20;99.90
24454;DHT22;12627;50.860;5.714;2022-11-25T04:07:10;9.10;99.90
24454;DHT22;12627;50.860;5.714;2022-11-25T04:09:38;9.00;99.90
24454;DHT22;12627;50.860;5.714;2022-11-25T04:12:05;8.90;99.90
24454;DHT22;12627;50.860;5.714;2022-11-25T04:14:50;8.90;99.90
24454;DHT22;12627;50.860;5.714;2022-11-25T04:17:17;8.80;99.90
24454;DHT22;12627;50.860;5.714;2022-11-25T04:19:44;8.80;99.90
24454;DHT22;12627;50.860;5.714;2022-11-25T04:22:11;8.90;99.90
24454;DHT22;12627;50.860;5.714;2022-11-25T04:24:40;9.00;99.90
24454;DHT22;12627;50.860;5.714;2022-11-25T04:27:07;9.10;99.90
24454;DHT22;12627;50.860;5.714;2022-11-25T04:29:34;9.10;99.90
24454;DHT22;12627;50.860;5.714;2022-11-25T04:32:01;9.00;99.90
24454;DHT22;12627;50.860;5.714;2022-11-25T04:34:29;9.00;99.90
24454;DHT22;12627;50.860;5.714;2022-11-25T04:36:56;9.00;99.90
24454;DHT22;12627;50.860;5.714;2022-11-25T04:39:23;9.10;99.90
24454;DHT22;12627;50.860;5.714;2022-11-25T04:41:52;9.00;99.90
24454;DHT22;12627;50.860;5.714;2022-11-25T04:44:39;9.10;99.90
24454;DHT22;12627;50.860;5.714;2022-11-25T04:47:06;9.00;99.90
24454;DHT22;12627;50.860;5.714;2022-11-25T04:49:33;9.00;99.90
24454;DHT22;12627;50.860;5.714;2022-11-25T04:52:00;8.90;99.90
24454;DHT22;12627;50.860;5.714;2022-11-25T04:54:28;9.00;99.90
24454;DHT22;12627;50.860;5.714;2022-11-25T04:56:56;9.00;99.90
24454;DHT22;12627;50.860;5.714;2022-11-25T04:59:26;9.00;99.90
24454;DHT22;12627;50.860;5.714;2022-11-25T05:02:06;9.00;99.90
24454;DHT22;12627;50.860;5.714;2022-11-25T05:04:33;8.90;99.90
24454;DHT22;12627;50.860;5.714;2022-11-25T05:07:00;9.00;99.90
24454;DHT22;12627;50.860;5.714;2022-11-25T05:09:28;9.00;99.90
24454;DHT22;12627;50.860;5.714;2022-11-25T05:11:56;9.00;99.90
24454;DHT22;12627;50.860;5.714;2022-11-25T05:14:23;8.90;99.90
24454;DHT22;12627;50.860;5.714;2022-11-25T05:16:50;9.00;99.90
24454;DHT22;12627;50.860;5.714;2022-11-25T05:19:18;8.90;99.90
24454;DHT22;12627;50.860;5.714;2022-11-25T05:21:45;8.90;99.90
24454;DHT22;12627;50.860;5.714;2022-11-25T05:24:12;8.90;99.90
24454;DHT22;12627;50.860;5.714;2022-11-25T05:26:39;8.70;99.90
24454;DHT22;12627;50.860;5.714;2022-11-25T05:29:08;8.80;99.90
24454;DHT22;12627;50.860;5.714;2022-11-25T05:31:35;8.70;99.90
24454;DHT22;12627;50.860;5.714;2022-11-25T05:34:03;8.70;99.90
24454;DHT22;12627;50.860;5.714;2022-11-25T05:36:30;8.70;99.90
24454;DHT22;12627;50.860;5.714;2022-11-25T05:38:58;8.70;99.90
24454;DHT22;12627;50.860;5.714;2022-11-25T05:41:25;8.70;99.90
24454;DHT22;12627;50.860;5.714;2022-11-25T05:43:52;8.70;99.90
24454;DHT22;12627;50.860;5.714;2022-11-25T05:46:21;8.80;99.90
24454;DHT22;12627;50.860;5.714;2022-11-25T05:48:52;8.80;99.90
24454;DHT22;12627;50.860;5.714;2022-11-25T05:51:19;8.80;99.90
24454;DHT22;12627;50.860;5.714;2022-11-25T05:53:47;8.70;99.90
24454;DHT22;12627;50.860;5.714;2022-11-25T05:56:14;8.70;99.90
24454;DHT22;12627;50.860;5.714;2022-11-25T05:58:41;8.60;99.90
24454;DHT22;12627;50.860;5.714;2022-11-25T06:01:11;8.60;99.90
24454;DHT22;12627;50.860;5.714;2022-11-25T06:03:41;8.60;99.90
24454;DHT22;12627;50.860;5.714;2022-11-25T06:06:09;8.70;99.90
24454;DHT22;12627;50.860;5.714;2022-11-25T06:08:37;8.70;99.90
24454;DHT22;12627;50.860;5.714;2022-11-25T06:11:05;8.70;99.90
24454;DHT22;12627;50.860;5.714;2022-11-25T06:13:33;8.70;99.90
24454;DHT22;12627;50.860;5.714;2022-11-25T06:16:06;8.70;99.90
24454;DHT22;12627;50.860;5.714;2022-11-25T06:18:35;8.70;99.90
24454;DHT22;12627;50.860;5.714;2022-11-25T06:21:04;8.70;99.90
24454;DHT22;12627;50.860;5.714;2022-11-25T06:23:32;8.70;99.90
24454;DHT22;12627;50.860;5.714;2022-11-25T06:26:09;8.60;99.90
24454;DHT22;12627;50.860;5.714;2022-11-25T06:28:36;8.60;99.90
24454;DHT22;12627;50.860;5.714;2022-11-25T06:31:05;8.60;99.90
24454;DHT22;12627;50.860;5.714;2022-11-25T06:33:33;8.50;99.90
24454;DHT22;12627;50.860;5.714;2022-11-25T06:36:03;8.50;99.90
24454;DHT22;12627;50.860;5.714;2022-11-25T06:38:31;8.50;99.90
24454;DHT22;12627;50.860;5.714;2022-11-25T06:40:59;8.50;99.90
24454;DHT22;12627;50.860;5.714;2022-11-25T06:43:27;8.50;99.90
24454;DHT22;12627;50.860;5.714;2022-11-25T06:46:00;8.50;99.90
24454;DHT22;12627;50.860;5.714;2022-11-25T06:48:28;8.40;99.90
24454;DHT22;12627;50.860;5.714;2022-11-25T06:50:56;8.30;99.90
24454;DHT22;12627;50.860;5.714;2022-11-25T06:53:25;8.40;99.90
24454;DHT22;12627;50.860;5.714;2022-11-25T06:56:07;8.30;99.90
24454;DHT22;12627;50.860;5.714;2022-11-25T06:58:35;8.20;99.90
24454;DHT22;12627;50.860;5.714;2022-11-25T07:01:05;8.20;99.90
24454;DHT22;12627;50.860;5.714;2022-11-25T07:03:34;8.20;99.90
24454;DHT22;12627;50.860;5.714;2022-11-25T07:06:02;8.20;99.90
24454;DHT22;12627;50.860;5.714;2022-11-25T07:08:31;8.20;99.90
24454;DHT22;12627;50.860;5.714;2022-11-25T07:11:01;8.30;99.90
24454;DHT22;12627;50.860;5.714;2022-11-25T07:13:29;8.30;99.90
24454;DHT22;12627;50.860;5.714;2022-11-25T07:16:00;8.40;99.90
24454;DHT22;12627;50.860;5.714;2022-11-25T07:18:29;8.40;99.90
24454;DHT22;12627;50.860;5.714;2022-11-25T07:21:01;8.40;99.90
24454;DHT22;12627;50.860;5.714;2022-11-25T07:23:30;8.40;99.90
24454;DHT22;12627;50.860;5.714;2022-11-25T07:26:01;8.50;99.90
24454;DHT22;12627;50.860;5.714;2022-11-25T07:28:29;8.50;99.90
24454;DHT22;12627;50.860;5.714;2022-11-25T07:31:03;8.50;99.90
24454;DHT22;12627;50.860;5.714;2022-11-25T07:33:31;8.50;99.90
24454;DHT22;12627;50.860;5.714;2022-11-25T07:36:01;8.50;99.90
24454;DHT22;12627;50.860;5.714;2022-11-25T07:38:28;8.50;99.90
24454;DHT22;12627;50.860;5.714;2022-11-25T07:41:03;8.50;99.90
24454;DHT22;12627;50.860;5.714;2022-11-25T07:43:30;8.50;99.90
24454;DHT22;12627;50.860;5.714;2022-11-25T07:46:10;8.60;99.90
24454;DHT22;12627;50.860;5.714;2022-11-25T07:48:38;8.60;99.90
24454;DHT22;12627;50.860;5.714;2022-11-25T07:51:13;8.60;99.90
24454;DHT22;12627;50.860;5.714;2022-11-25T07:53:40;8.60;99.90
24454;DHT22;12627;50.860;5.714;2022-11-25T07:56:09;8.60;99.90
24454;DHT22;12627;50.860;5.714;2022-11-25T07:58:36;8.80;99.90
24454;DHT22;12627;50.860;5.714;2022-11-25T08:01:04;8.90;99.90
24454;DHT22;12627;50.860;5.714;2022-11-25T08:03:32;9.10;99.90
24454;DHT22;12627;50.860;5.714;2022-11-25T08:06:00;9.20;99.90
24454;DHT22;12627;50.860;5.714;2022-11-25T08:08:28;9.30;99.90
24454;DHT22;12627;50.860;5.714;2022-11-25T08:10:55;9.50;99.90
24454;DHT22;12627;50.860;5.714;2022-11-25T08:13:24;9.70;99.90
24454;DHT22;12627;50.860;5.714;2022-11-25T08:15:52;10.00;99.90
24454;DHT22;12627;50.860;5.714;2022-11-25T08:18:19;10.20;99.90
24454;DHT22;12627;50.860;5.714;2022-11-25T08:20:46;10.30;99.90
24454;DHT22;12627;50.860;5.714;2022-11-25T08:23:14;10.60;99.90
24454;DHT22;12627;50.860;5.714;2022-11-25T08:25:41;10.70;99.90
24454;DHT22;12627;50.860;5.714;2022-11-25T08:28:09;10.80;99.90
24454;DHT22;12627;50.860;5.714;2022-11-25T08:30:38;11.00;99.90
24454;DHT22;12627;50.860;5.714;2022-11-25T08:33:05;11.30;99.90
24454;DHT22;12627;50.860;5.714;2022-11-25T08:35:32;11.30;99.90
24454;DHT22;12627;50.860;5.714;2022-11-25T08:38:03;11.10;99.90
24454;DHT22;12627;50.860;5.714;2022-11-25T08:40:31;11.50;99.90
24454;DHT22;12627;50.860;5.714;2022-11-25T08:42:58;11.70;99.90
24454;DHT22;12627;50.860;5.714;2022-11-25T08:45:25;11.50;99.90
24454;DHT22;12627;50.860;5.714;2022-11-25T08:47:54;11.40;99.90
24454;DHT22;12627;50.860;5.714;2022-11-25T08:50:21;12.10;99.90
24454;DHT22;12627;50.860;5.714;2022-11-25T08:52:50;12.40;99.90
24454;DHT22;12627;50.860;5.714;2022-11-25T08:55:17;11.60;99.90
24454;DHT22;12627;50.860;5.714;2022-11-25T08:57:46;11.60;99.90
24454;DHT22;12627;50.860;5.714;2022-11-25T09:00:14;12.00;99.90
24454;DHT22;12627;50.860;5.714;2022-11-25T09:02:42;12.20;99.90
24454;DHT22;12627;50.860;5.714;2022-11-25T09:05:14;12.00;99.90
24454;DHT22;12627;50.860;5.714;2022-11-25T09:07:42;12.00;99.90
24454;DHT22;12627;50.860;5.714;2022-11-25T09:10:14;11.80;99.90
24454;DHT22;12627;50.860;5.714;2022-11-25T09:12:41;11.00;99.90
24454;DHT22;12627;50.860;5.714;2022-11-25T09:15:10;11.00;99.90
24454;DHT22;12627;50.860;5.714;2022-11-25T09:17:37;11.00;99.90
24454;DHT22;12627;50.860;5.714;2022-11-25T09:20:06;10.60;99.90
24454;DHT22;12627;50.860;5.714;2022-11-25T09:22:35;10.90;99.90
24454;DHT22;12627;50.860;5.714;2022-11-25T09:25:03;10.80;99.90
24454;DHT22;12627;50.860;5.714;2022-11-25T09:27:30;11.20;99.90
24454;DHT22;12627;50.860;5.714;2022-11-25T09:29:58;11.40;99.90
24454;DHT22;12627;50.860;5.714;2022-11-25T09:32:25;12.00;99.90
24454;DHT22;12627;50.860;5.714;2022-11-25T09:34:52;12.30;99.90
24454;DHT22;12627;50.860;5.714;2022-11-25T09:37:19;12.10;99.90
24454;DHT22;12627;50.860;5.714;2022-11-25T09:39:48;11.90;99.90
24454;DHT22;12627;50.860;5.714;2022-11-25T09:42:27;11.90;99.90
24454;DHT22;12627;50.860;5.714;2022-11-25T09:45:19;11.50;99.90
24454;DHT22;12627;50.860;5.714;2022-11-25T09:48:26;11.30;99.90
24454;DHT22;12627;50.860;5.714;2022-11-25T09:51:06;11.30;99.90
24454;DHT22;12627;50.860;5.714;2022-11-25T09:53:41;11.50;99.90
24454;DHT22;12627;50.860;5.714;2022-11-25T09:56:17;11.60;99.90
24454;DHT22;12627;50.860;5.714;2022-11-25T09:58:51;11.50;99.90
24454;DHT22;12627;50.860;5.714;2022-11-25T10:01:22;11.00;99.90
24454;DHT22;12627;50.860;5.714;2022-11-25T10:03:53;11.70;99.90
24454;DHT22;12627;50.860;5.714;2022-11-25T10:06:25;11.60;99.90
24454;DHT22;12627;50.860;5.714;2022-11-25T10:08:56;11.30;99.90
24454;DHT22;12627;50.860;5.714;2022-11-25T10:11:33;11.30;99.90
24454;DHT22;12627;50.860;5.714;2022-11-25T10:14:09;10.80;99.90
24454;DHT22;12627;50.860;5.714;2022-11-25T10:16:46;10.70;99.90
24454;DHT22;12627;50.860;5.714;2022-11-25T10:19:23;10.50;99.90
24454;DHT22;12627;50.860;5.714;2022-11-25T10:21:52;10.70;99.90
24454;DHT22;12627;50.860;5.714;2022-11-25T10:24:19;11.10;99.90
24454;DHT22;12627;50.860;5.714;2022-11-25T10:26:55;11.30;99.90
24454;DHT22;12627;50.860;5.714;2022-11-25T10:29:26;11.50;99.90
24454;DHT22;12627;50.860;5.714;2022-11-25T10:32:10;11.90;99.90
24454;DHT22;12627;50.860;5.714;2022-11-25T10:34:44;12.20;99.90
24454;DHT22;12627;50.860;5.714;2022-11-25T10:37:26;12.00;99.90
24454;DHT22;12627;50.860;5.714;2022-11-25T10:39:54;11.80;99.90
24454;DHT22;12627;50.860;5.714;2022-11-25T10:42:26;11.80;99.90
24454;DHT22;12627;50.860;5.714;2022-11-25T10:44:54;12.00;99.90
24454;DHT22;12627;50.860;5.714;2022-11-25T10:47:34;11.60;99.90
24454;DHT22;12627;50.860;5.714;2022-11-25T10:50:21;11.80;99.90
24454;DHT22;12627;50.860;5.714;2022-11-25T10:52:56;12.60;99.90
24454;DHT22;12627;50.860;5.714;2022-11-25T10:55:25;12.10;99.90
24454;DHT22;12627;50.860;5.714;2022-11-25T10:57:55;11.90;99.90
24454;DHT22;12627;50.860;5.714;2022-11-25T11:00:28;11.60;99.90
24454;DHT22;12627;50.860;5.714;2022-11-25T11:02:57;11.60;99.90
24454;DHT22;12627;50.860;5.714;2022-11-25T11:05:26;11.60;99.90
24454;DHT22;12627;50.860;5.714;2022-11-25T11:08:14;11.70;99.90
24454;DHT22;12627;50.860;5.714;2022-11-25T11:10:43;11.70;99.90
24454;DHT22;12627;50.860;5.714;2022-11-25T11:13:22;11.90;99.90
24454;DHT22;12627;50.860;5.714;2022-11-25T11:15:51;12.10;99.90
24454;DHT22;12627;50.860;5.714;2022-11-25T11:18:27;12.00;99.90
24454;DHT22;12627;50.860;5.714;2022-11-25T11:20:56;12.40;99.90
24454;DHT22;12627;50.860;5.714;2022-11-25T11:23:24;11.80;99.90
24454;DHT22;12627;50.860;5.714;2022-11-25T11:26:00;11.60;99.90
24454;DHT22;12627;50.860;5.714;2022-11-25T11:28:36;11.40;99.90
24454;DHT22;12627;50.860;5.714;2022-11-25T11:31:07;11.20;99.90
24454;DHT22;12627;50.860;5.714;2022-11-25T11:33:47;11.00;99.90
24454;DHT22;12627;50.860;5.714;2022-11-25T11:36:29;11.00;99.90
24454;DHT22;12627;50.860;5.714;2022-11-25T11:39:12;11.10;99.90
24454;DHT22;12627;50.860;5.714;2022-11-25T11:41:48;11.00;99.90
24454;DHT22;12627;50.860;5.714;2022-11-25T11:44:24;11.00;99.90
24454;DHT22;12627;50.860;5.714;2022-11-25T11:47:13;11.30;99.90
24454;DHT22;12627;50.860;5.714;2022-11-25T11:50:02;11.60;99.90
24454;DHT22;12627;50.860;5.714;2022-11-25T11:52:40;11.70;99.90
24454;DHT22;12627;50.860;5.714;2022-11-25T11:55:25;12.50;99.90
24454;DHT22;12627;50.860;5.714;2022-11-25T11:58:01;12.60;99.90
24454;DHT22;12627;50.860;5.714;2022-11-25T12:00:37;12.10;99.90
24454;DHT22;12627;50.860;5.714;2022-11-25T12:03:12;11.90;99.90
24454;DHT22;12627;50.860;5.714;2022-11-25T12:05:40;12.20;99.90
24454;DHT22;12627;50.860;5.714;2022-11-25T12:08:12;12.40;99.90
24454;DHT22;12627;50.860;5.714;2022-11-25T12:10:44;12.10;99.90
24454;DHT22;12627;50.860;5.714;2022-11-25T12:13:18;11.90;99.90
24454;DHT22;12627;50.860;5.714;2022-11-25T12:15:52;11.90;99.90
24454;DHT22;12627;50.860;5.714;2022-11-25T12:18:32;11.70;99.90
24454;DHT22;12627;50.860;5.714;2022-11-25T12:21:03;11.60;99.90
24454;DHT22;12627;50.860;5.714;2022-11-25T12:23:40;11.60;99.90
24454;DHT22;12627;50.860;5.714;2022-11-25T12:26:14;11.50;99.90
24454;DHT22;12627;50.860;5.714;2022-11-25T12:28:48;11.50;99.90
24454;DHT22;12627;50.860;5.714;2022-11-25T12:31:23;11.40;99.90
24454;DHT22;12627;50.860;5.714;2022-11-25T12:33:58;11.40;99.90
24454;DHT22;12627;50.860;5.714;2022-11-25T12:36:32;11.40;99.90
24454;DHT22;12627;50.860;5.714;2022-11-25T12:39:02;11.40;99.90
24454;DHT22;12627;50.860;5.714;2022-11-25T12:41:36;11.50;99.90
24454;DHT22;12627;50.860;5.714;2022-11-25T12:44:11;11.60;99.90
24454;DHT22;12627;50.860;5.714;2022-11-25T12:46:44;11.70;99.90
24454;DHT22;12627;50.860;5.714;2022-11-25T12:49:16;11.70;99.90
24454;DHT22;12627;50.860;5.714;2022-11-25T12:52:16;11.80;99.90
24454;DHT22;12627;50.860;5.714;2022-11-25T12:54:58;11.70;99.90
24454;DHT22;12627;50.860;5.714;2022-11-25T13:00:39;11.80;99.90
24454;DHT22;12627;50.860;5.714;2022-11-25T13:06:31;11.90;99.90
24454;DHT22;12627;50.860;5.714;2022-11-25T13:09:15;12.00;99.90
24454;DHT22;12627;50.860;5.714;2022-11-25T13:12:07;11.90;99.90
24454;DHT22;12627;50.860;5.714;2022-11-25T13:17:41;11.90;99.90
24454;DHT22;12627;50.860;5.714;2022-11-25T13:20:32;12.00;99.90
24454;DHT22;12627;50.860;5.714;2022-11-25T13:23:18;11.80;99.90
24454;DHT22;12627;50.860;5.714;2022-11-25T13:25:49;11.90;99.90
24454;DHT22;12627;50.860;5.714;2022-11-25T13:28:29;12.00;99.90
24454;DHT22;12627;50.860;5.714;2022-11-25T13:31:21;11.90;99.90
24454;DHT22;12627;50.860;5.714;2022-11-25T13:34:06;11.80;99.90
24454;DHT22;12627;50.860;5.714;2022-11-25T13:36:45;11.80;99.90
24454;DHT22;12627;50.860;5.714;2022-11-25T13:39:15;11.80;99.90
24454;DHT22;12627;50.860;5.714;2022-11-25T13:41:48;12.00;99.90
24454;DHT22;12627;50.860;5.714;2022-11-25T13:44:22;12.00;99.90
24454;DHT22;12627;50.860;5.714;2022-11-25T13:46:53;12.00;99.90
24454;DHT22;12627;50.860;5.714;2022-11-25T13:49:31;11.90;99.90
24454;DHT22;12627;50.860;5.714;2022-11-25T13:52:02;11.80;99.90
24454;DHT22;12627;50.860;5.714;2022-11-25T13:54:38;11.70;99.90
24454;DHT22;12627;50.860;5.714;2022-11-25T13:57:25;11.70;99.90
24454;DHT22;12627;50.860;5.714;2022-11-25T13:59:55;11.60;99.90
24454;DHT22;12627;50.860;5.714;2022-11-25T14:02:40;11.60;99.90
24454;DHT22;12627;50.860;5.714;2022-11-25T14:05:36;11.50;99.90
24454;DHT22;12627;50.860;5.714;2022-11-25T14:08:14;11.50;99.90
24454;DHT22;12627;50.860;5.714;2022-11-25T14:10:52;11.50;99.90
24454;DHT22;12627;50.860;5.714;2022-11-25T14:16:26;11.40;99.90
24454;DHT22;12627;50.860;5.714;2022-11-25T14:19:16;11.50;99.90
24454;DHT22;12627;50.860;5.714;2022-11-25T14:22:04;11.60;99.90
24454;DHT22;12627;50.860;5.714;2022-11-25T14:24:36;11.60;99.90
24454;DHT22;12627;50.860;5.714;2022-11-25T14:27:13;11.60;99.90
24454;DHT22;12627;50.860;5.714;2022-11-25T14:29:44;11.60;99.90
24454;DHT22;12627;50.860;5.714;2022-11-25T14:32:17;11.60;99.90
24454;DHT22;12627;50.860;5.714;2022-11-25T14:34:48;11.60;99.90
24454;DHT22;12627;50.860;5.714;2022-11-25T14:37:20;11.50;99.90
24454;DHT22;12627;50.860;5.714;2022-11-25T14:39:53;11.50;99.90
24454;DHT22;12627;50.860;5.714;2022-11-25T14:42:25;11.50;99.90
24454;DHT22;12627;50.860;5.714;2022-11-25T14:44:54;11.50;99.90
24454;DHT22;12627;50.860;5.714;2022-11-25T14:47:24;11.40;99.90
